Time;durP1;ratioP1;P1;durP2;ratioP2;P2;SDS_P1;SDS_P2;PMS_P1;PMS_P2;Temp;Humidity;BMP_temperature;BMP_pressure;BME280_temperature;BME280_humidity;BME280_pressure;Samples;Min_cycle;Max_cycle;Signal;HPM_P1;HPM_P2
2022/01/16 00:01:06;;;;;;;190.00;55.28;;;;;;;2.05;100.00;102315.66;4954855;28;20043;-73
2022/01/16 00:06:17;;;;;;;193.75;56.72;;;;;;;1.98;100.00;102299.56;4975768;28;20089;-73
2022/01/16 00:08:43;;;;;;;191.90;57.45;;;;;;;1.91;100.00;102305.97;4975816;28;20148;-73
2022/01/16 00:11:08;;;;;;;186.00;52.70;;;;;;;1.96;100.00;102300.78;4973753;28;20491;-73
2022/01/16 00:13:34;;;;;;;198.25;56.42;;;;;;;1.97;100.00;102310.50;4975172;28;20156;-73
2022/01/16 00:15:59;;;;;;;198.63;56.83;;;;;;;1.99;100.00;102319.22;4978016;28;20042;-73
2022/01/16 00:18:28;;;;;;;202.80;56.95;;;;;;;1.97;100.00;102326.66;4976458;28;20045;-73
2022/01/16 00:20:54;;;;;;;187.75;56.08;;;;;;;1.97;100.00;102334.72;4970749;28;20085;-73
2022/01/16 00:23:25;;;;;;;205.70;59.13;;;;;;;1.83;100.00;102308.88;4969080;28;20138;-73
2022/01/16 00:25:56;;;;;;;185.43;55.03;;;;;;;2.00;100.00;102320.84;4964963;28;20525;-73
2022/01/16 00:28:22;;;;;;;192.32;54.50;;;;;;;1.89;100.00;102319.66;4965405;28;20040;-72
2022/01/16 00:30:49;;;;;;;200.60;56.08;;;;;;;1.92;100.00;102310.31;4975090;28;20726;-73
2022/01/16 00:33:15;;;;;;;191.77;54.83;;;;;;;1.94;100.00;102310.94;4980404;28;20060;-72
2022/01/16 00:35:41;;;;;;;181.68;53.20;;;;;;;1.86;100.00;102314.66;4975690;28;20518;-72
2022/01/16 00:38:06;;;;;;;188.32;53.88;;;;;;;1.75;100.00;102315.31;4976976;28;20077;-73
2022/01/16 00:40:32;;;;;;;177.48;53.42;;;;;;;1.90;100.00;102321.28;4974700;28;20052;-72
2022/01/16 00:42:58;;;;;;;177.50;55.40;;;;;;;1.92;100.00;102318.38;4976931;28;20046;-73
2022/01/16 00:45:24;;;;;;;173.85;51.95;;;;;;;1.94;100.00;102311.75;4976822;28;20042;-73
2022/01/16 00:47:50;;;;;;;184.85;54.15;;;;;;;1.98;100.00;102306.81;4976741;28;20049;-73
2022/01/16 00:50:15;;;;;;;176.05;53.53;;;;;;;1.94;100.00;102303.69;4980380;28;20038;-73
2022/01/16 00:52:41;;;;;;;188.27;56.10;;;;;;;1.89;100.00;102297.28;4975456;28;20491;-73
2022/01/16 00:55:07;;;;;;;170.13;54.45;;;;;;;1.74;100.00;102314.47;4959273;28;20042;-72
2022/01/16 00:57:32;;;;;;;182.95;57.08;;;;;;;1.75;100.00;102297.31;4974732;28;20082;-73
2022/01/16 00:59:58;;;;;;;181.77;56.08;;;;;;;1.80;100.00;102289.44;4976509;28;20045;-73
2022/01/16 01:02:23;;;;;;;185.38;57.65;;;;;;;1.93;100.00;102293.16;4972494;28;20039;-73
2022/01/16 01:04:49;;;;;;;185.73;57.25;;;;;;;1.87;100.00;102275.16;4957882;28;20042;-73
2022/01/16 01:07:14;;;;;;;167.73;56.33;;;;;;;1.88;100.00;102268.72;4956899;28;20047;-73
2022/01/16 01:09:40;;;;;;;188.27;56.30;;;;;;;1.84;100.00;102262.13;4957806;28;20154;-73
2022/01/16 01:12:06;;;;;;;194.60;59.00;;;;;;;1.85;100.00;102288.81;4956993;28;20064;-72
2022/01/16 01:17:07;;;;;;;;;;;;;;;1.79;100.00;102293.16;4954888;28;20540;-72
2022/01/16 01:19:34;;;;;;;192.52;59.40;;;;;;;1.87;100.00;102283.22;4954661;28;20298;-73
2022/01/16 01:22:01;;;;;;;174.48;55.25;;;;;;;1.88;100.00;102287.56;4955888;28;20054;-73
2022/01/16 01:24:27;;;;;;;175.63;56.25;;;;;;;1.83;100.00;102276.59;4955846;28;20077;-73
2022/01/16 01:27:30;;;;;;;185.65;56.53;;;;;;;1.72;100.00;102265.47;4955678;28;20039;-73
2022/01/16 01:29:51;;;;;;;194.10;58.45;;;;;;;1.75;100.00;102286.56;4953681;28;20480;-73
2022/01/16 01:32:16;;;;;;;190.32;58.33;;;;;;;1.83;100.00;102301.63;4955985;28;20043;-73
2022/01/16 01:34:42;;;;;;;212.85;60.85;;;;;;;1.70;100.00;102302.47;4955808;28;20042;-73
2022/01/16 01:37:07;;;;;;;200.93;59.33;;;;;;;1.72;100.00;102305.81;4955978;28;20062;-73
2022/01/16 01:39:32;;;;;;;189.77;59.42;;;;;;;1.65;100.00;102259.25;4955757;28;20066;-73
2022/01/16 01:42:06;;;;;;;225.55;64.72;;;;;;;1.75;100.00;102224.69;4954133;28;20569;-73
2022/01/16 01:52:44;;;;;;;188.20;62.53;;;;;;;1.61;100.00;102206.13;4972749;28;20410;-73
2022/01/16 01:55:10;;;;;;;186.00;61.53;;;;;;;1.65;100.00;102235.06;4973349;28;20042;-73
2022/01/16 01:57:36;;;;;;;207.68;64.75;;;;;;;1.65;100.00;102226.97;4974115;28;20413;-73
2022/01/16 02:00:03;;;;;;;182.48;60.17;;;;;;;1.69;100.00;102249.75;4975133;28;20058;-73
2022/01/16 02:02:38;;;;;;;198.30;62.90;;;;;;;1.61;100.00;102260.72;4968800;28;20047;-73
2022/01/16 02:05:03;;;;;;;193.35;63.05;;;;;;;1.56;100.00;102253.25;4937915;28;20042;-73
2022/01/16 02:07:29;;;;;;;186.27;58.97;;;;;;;1.62;100.00;102275.81;4955794;28;20070;-73
2022/01/16 02:09:54;;;;;;;188.82;60.00;;;;;;;1.61;100.00;102273.34;4955034;28;20051;-73
2022/01/16 02:12:22;;;;;;;212.23;60.63;;;;;;;1.61;100.00;102268.78;4955325;28;20043;-73
2022/01/16 02:15:03;;;;;;;202.93;62.33;;;;;;;1.70;100.00;102251.38;4937288;28;20467;-73
2022/01/16 02:28:42;;;;;;;196.38;60.30;;;;;;;1.35;100.00;102278.50;4952802;28;20506;-74
2022/01/16 02:31:21;;;;;;;185.82;57.80;;;;;;;1.53;100.00;102294.00;4954657;28;20138;-73
2022/01/16 02:36:42;;;;;;;193.35;60.08;;;;;;;1.51;100.00;102306.00;4955868;28;20053;-73
2022/01/16 02:39:10;;;;;;;191.80;58.92;;;;;;;1.51;100.00;102295.25;4957504;28;20050;-72
2022/01/16 02:41:35;;;;;;;207.18;60.80;;;;;;;1.43;100.00;102300.84;4957417;28;20441;-73
2022/01/16 02:44:11;;;;;;;199.82;59.30;;;;;;;1.49;100.00;102305.41;4957427;28;20549;-73
2022/01/16 02:46:36;;;;;;;204.18;57.28;;;;;;;1.45;100.00;102301.47;4957464;28;20161;-72
2022/01/16 02:49:03;;;;;;;191.73;58.13;;;;;;;1.41;100.00;102300.22;4970586;28;20038;-73
2022/01/16 02:51:29;;;;;;;220.55;58.78;;;;;;;1.40;100.00;102293.19;4976627;28;20793;-73
2022/01/16 02:53:55;;;;;;;196.05;56.63;;;;;;;1.35;100.00;102281.19;4975718;28;20231;-73
2022/01/16 02:56:21;;;;;;;189.30;56.92;;;;;;;1.50;100.00;102280.97;4975501;28;20045;-73
2022/01/16 02:58:49;;;;;;;189.70;56.15;;;;;;;1.48;100.00;102279.53;4975603;28;20050;-74
2022/01/16 03:01:15;;;;;;;186.07;54.10;;;;;;;1.50;100.00;102272.09;4976516;28;20039;-73
2022/01/16 03:03:40;;;;;;;235.23;60.45;;;;;;;1.49;100.00;102257.00;4959523;28;20497;-73
2022/01/16 03:06:06;;;;;;;211.77;57.13;;;;;;;1.46;100.00;102258.25;4956892;28;20562;-73
2022/01/16 03:08:31;;;;;;;231.75;58.53;;;;;;;1.51;100.00;102252.22;4956947;28;20042;-73
2022/01/16 03:13:22;;;;;;;228.18;60.55;;;;;;;1.46;100.00;102239.44;4956333;28;20077;-73
2022/01/16 03:15:51;;;;;;;198.27;56.25;;;;;;;1.61;100.00;102233.84;4957288;28;20513;-73
2022/01/16 03:23:26;;;;;;;197.30;54.17;;;;;;;1.67;100.00;102230.31;4957434;28;20045;-73
2022/01/16 03:25:52;;;;;;;217.23;54.70;;;;;;;1.49;100.00;102240.88;4956640;28;20035;-73
2022/01/16 03:28:18;;;;;;;211.43;56.70;;;;;;;1.55;100.00;102237.34;4955352;28;20126;-73
2022/01/16 03:30:45;;;;;;;159.23;51.22;;;;;;;1.65;100.00;102235.06;4957355;28;20464;-73
2022/01/16 03:33:10;;;;;;;215.93;59.28;;;;;;;1.59;100.00;102233.19;4955798;28;20305;-73
2022/01/16 03:35:36;;;;;;;189.15;55.50;;;;;;;1.53;100.00;102232.19;4955306;28;20046;-73
2022/01/16 03:38:01;;;;;;;208.73;60.25;;;;;;;1.59;100.00;102228.66;4955854;28;20093;-73
2022/01/16 03:40:27;;;;;;;207.68;58.72;;;;;;;1.70;100.00;102207.53;4955944;28;20059;-73
2022/01/16 03:42:53;;;;;;;214.27;60.45;;;;;;;1.59;100.00;102206.31;4957905;28;20058;-73
2022/01/16 03:45:18;;;;;;;194.00;58.38;;;;;;;1.70;100.00;102213.75;4955656;28;20038;-73
2022/01/16 03:47:44;;;;;;;201.30;61.08;;;;;;;1.75;100.00;102216.63;4959176;28;20467;-73
2022/01/16 03:50:10;;;;;;;186.48;57.70;;;;;;;1.73;100.00;102213.31;4975114;28;20046;-73
2022/01/16 03:52:36;;;;;;;198.10;59.95;;;;;;;1.68;100.00;102215.81;4975836;28;20048;-73
2022/01/16 03:55:03;;;;;;;220.70;60.55;;;;;;;1.76;100.00;102209.38;4976055;28;20042;-73
2022/01/16 03:57:28;;;;;;;233.38;61.35;;;;;;;1.66;100.00;102201.78;4975391;28;20130;-74
2022/01/16 03:59:55;;;;;;;209.45;60.55;;;;;;;1.67;100.00;102213.34;4975244;28;20614;-73
2022/01/16 04:02:21;;;;;;;211.52;59.55;;;;;;;1.68;100.00;102210.44;4975283;28;20069;-73
2022/01/16 04:04:46;;;;;;;246.50;61.83;;;;;;;1.73;100.00;102217.88;4975632;28;20392;-73
2022/01/16 04:07:17;;;;;;;241.43;61.55;;;;;;;1.65;100.00;102213.53;4975208;28;20042;-73
2022/01/16 04:09:43;;;;;;;207.77;61.38;;;;;;;1.82;100.00;102208.53;4975436;28;20122;-73
2022/01/16 04:12:10;;;;;;;237.70;60.45;;;;;;;1.84;100.00;102197.56;4976580;28;20048;-73
2022/01/16 04:17:23;;;;;;;258.20;66.53;;;;;;;1.69;100.00;102208.59;4954747;28;20313;-73
2022/01/16 04:19:50;;;;;;;200.52;60.28;;;;;;;1.75;100.00;102203.19;4973629;28;20680;-73
2022/01/16 04:22:16;;;;;;;260.20;66.20;;;;;;;1.79;100.00;102190.97;4973977;28;20473;-74
2022/01/16 04:24:42;;;;;;;210.25;60.47;;;;;;;1.88;100.00;102193.41;4976086;28;20077;-73
2022/01/16 04:27:10;;;;;;;203.77;57.58;;;;;;;1.80;100.00;102191.78;4975501;28;20038;-73
2022/01/16 04:29:36;;;;;;;214.23;61.58;;;;;;;1.81;100.00;102188.06;4975870;28;20502;-73
2022/01/16 04:32:02;;;;;;;239.98;61.55;;;;;;;1.85;100.00;102189.28;4975501;28;20344;-73
2022/01/16 04:34:28;;;;;;;205.15;61.25;;;;;;;1.87;100.00;102200.66;4975276;28;20100;-73
2022/01/16 04:36:53;;;;;;;204.27;60.25;;;;;;;1.90;100.00;102199.41;4973044;28;20038;-73
2022/01/16 04:39:21;;;;;;;211.23;61.35;;;;;;;1.77;100.00;102203.78;4973605;28;20057;-73
2022/01/16 04:44:31;;;;;;;204.70;60.90;;;;;;;1.93;100.00;102217.81;4975839;28;20376;-73
2022/01/16 04:46:57;;;;;;;194.85;58.78;;;;;;;1.94;100.00;102206.84;4975789;28;20506;-73
2022/01/16 04:49:23;;;;;;;192.95;57.75;;;;;;;1.98;100.00;102199.19;4975430;28;20049;-74
2022/01/16 04:51:49;;;;;;;188.75;58.30;;;;;;;2.06;100.00;102211.56;4975676;28;20054;-73
2022/01/16 04:54:14;;;;;;;205.82;60.78;;;;;;;1.94;100.00;102208.69;4974848;28;20120;-73
2022/01/16 04:56:39;;;;;;;186.52;55.17;;;;;;;2.01;100.00;102210.34;4974241;28;20105;-73
2022/01/16 04:59:05;;;;;;;198.15;61.00;;;;;;;1.97;100.00;102208.28;4973795;28;20050;-73
2022/01/16 05:01:32;;;;;;;189.27;60.55;;;;;;;2.15;100.00;102210.28;4976216;28;20288;-73
2022/01/16 05:03:57;;;;;;;191.63;59.63;;;;;;;2.03;100.00;102208.25;4958231;28;20045;-73
2022/01/16 05:06:23;;;;;;;202.20;58.38;;;;;;;2.08;100.00;102210.31;4956005;28;20035;-73
2022/01/16 05:08:48;;;;;;;186.45;57.45;;;;;;;2.13;100.00;102194.34;4955725;28;20051;-73
2022/01/16 05:11:18;;;;;;;197.13;57.10;;;;;;;2.10;100.00;102173.25;4955363;28;20051;-73
2022/01/16 05:18:54;;;;;;;197.30;58.90;;;;;;;2.08;100.00;102172.63;4956478;28;20130;-73
2022/01/16 05:21:20;;;;;;;190.90;61.30;;;;;;;2.08;100.00;102166.44;4955761;28;20054;-73
2022/01/16 05:23:46;;;;;;;195.57;63.72;;;;;;;2.13;100.00;102161.25;4953536;28;20070;-73
2022/01/16 05:26:13;;;;;;;189.32;58.35;;;;;;;2.05;100.00;102167.69;4955981;28;20074;-73
2022/01/16 05:28:38;;;;;;;183.93;60.10;;;;;;;2.07;100.00;102157.53;4956415;28;20509;-73
2022/01/16 05:31:04;;;;;;;184.18;61.50;;;;;;;2.08;100.00;102156.50;4954776;28;20380;-73
2022/01/16 05:33:30;;;;;;;183.35;60.63;;;;;;;2.21;100.00;102156.44;4956098;28;20264;-73
2022/01/16 05:35:56;;;;;;;205.75;61.25;;;;;;;2.18;100.00;102167.63;4955708;28;20294;-73
2022/01/16 05:38:22;;;;;;;182.85;58.75;;;;;;;2.12;100.00;102171.16;4955985;28;20533;-73
2022/01/16 05:40:47;;;;;;;193.48;58.65;;;;;;;2.19;100.00;102166.59;4956065;28;20046;-73
2022/01/16 05:43:13;;;;;;;176.57;55.65;;;;;;;2.25;100.00;102168.41;4953628;28;20054;-73
2022/01/16 05:45:38;;;;;;;201.82;60.75;;;;;;;2.22;100.00;102168.84;4955141;28;20145;-73
2022/01/16 05:48:04;;;;;;;200.23;62.13;;;;;;;2.13;100.00;102164.75;4959548;28;20030;-73
2022/01/16 05:50:31;;;;;;;199.30;61.53;;;;;;;2.12;100.00;102165.78;4972619;28;20039;-73
2022/01/16 05:52:58;;;;;;;195.35;61.10;;;;;;;2.16;100.00;102158.94;4974776;28;20046;-72
2022/01/16 05:55:26;;;;;;;179.80;61.78;;;;;;;2.32;100.00;102167.53;4973857;28;20487;-73
2022/01/16 05:57:52;;;;;;;188.55;60.75;;;;;;;2.23;100.00;102164.28;4971756;28;20384;-73
2022/01/16 06:00:18;;;;;;;197.73;60.55;;;;;;;2.30;100.00;102164.22;4971804;28;20053;-73
2022/01/16 06:02:43;;;;;;;195.43;60.58;;;;;;;2.20;100.00;102154.78;4967073;28;20042;-73
2022/01/16 06:05:09;;;;;;;189.73;61.10;;;;;;;2.16;100.00;102163.50;4952592;28;20066;-73
2022/01/16 06:07:34;;;;;;;206.30;63.45;;;;;;;2.22;100.00;102163.47;4954370;28;20039;-73
2022/01/16 06:10:00;;;;;;;200.60;62.88;;;;;;;2.23;100.00;102164.28;4955608;28;20101;-73
2022/01/16 06:12:25;;;;;;;178.98;58.75;;;;;;;2.22;100.00;102157.25;4972034;28;20049;-73
2022/01/16 06:14:51;;;;;;;188.63;60.70;;;;;;;2.29;100.00;102167.97;4974903;28;20404;-73
2022/01/16 06:17:16;;;;;;;188.70;60.42;;;;;;;2.32;100.00;102167.53;4976083;28;20046;-73
2022/01/16 06:19:42;;;;;;;198.45;62.63;;;;;;;2.27;100.00;102162.81;4975997;28;20057;-73
2022/01/16 06:22:07;;;;;;;195.18;62.17;;;;;;;2.20;100.00;102160.16;4977292;28;20057;-73
2022/01/16 06:24:32;;;;;;;194.25;63.03;;;;;;;2.16;100.00;102167.00;4975567;28;20434;-73
2022/01/16 06:26:58;;;;;;;200.02;64.45;;;;;;;2.26;100.00;102169.22;4977615;28;20467;-73
2022/01/16 06:29:25;;;;;;;200.98;65.05;;;;;;;2.31;100.00;102169.41;4978123;28;20217;-73
2022/01/16 06:31:50;;;;;;;209.63;64.45;;;;;;;2.34;100.00;102181.63;4978213;28;20046;-73
2022/01/16 06:34:16;;;;;;;215.50;69.70;;;;;;;2.21;100.00;102183.34;4977664;28;20049;-73
2022/01/16 06:36:41;;;;;;;202.38;65.82;;;;;;;2.26;100.00;102180.00;4976078;28;20057;-73
2022/01/16 06:39:09;;;;;;;200.23;68.43;;;;;;;2.32;100.00;102195.28;4975276;28;20146;-73
2022/01/16 06:41:35;;;;;;;216.57;67.88;;;;;;;2.34;100.00;102197.78;4976423;28;20570;-73
2022/01/16 06:44:01;;;;;;;210.77;68.80;;;;;;;2.28;100.00;102204.03;4977577;28;20057;-73
2022/01/16 06:46:27;;;;;;;207.98;68.18;;;;;;;2.26;100.00;102186.19;4977086;28;20042;-73
2022/01/16 06:48:52;;;;;;;195.75;66.47;;;;;;;2.32;100.00;102197.16;4976496;28;20444;-73
2022/01/16 06:51:19;;;;;;;205.65;69.88;;;;;;;2.32;100.00;102199.84;4975607;28;20054;-73
2022/01/16 06:53:46;;;;;;;219.18;69.55;;;;;;;2.22;100.00;102201.13;4958053;28;20153;-73
2022/01/16 06:56:11;;;;;;;203.63;66.78;;;;;;;2.27;100.00;102189.75;4974324;28;20052;-74
2022/01/16 06:58:37;;;;;;;201.93;68.75;;;;;;;2.25;100.00;102206.09;4964503;28;20046;-73
2022/01/16 07:01:02;;;;;;;201.07;67.88;;;;;;;2.31;100.00;102208.97;4964938;28;20129;-73
2022/01/16 07:03:28;;;;;;;203.25;70.20;;;;;;;2.26;100.00;102206.91;4967535;28;20411;-73
2022/01/16 07:05:54;;;;;;;197.75;71.40;;;;;;;2.22;100.00;102211.91;4976039;28;20692;-73
2022/01/16 07:08:22;;;;;;;202.85;68.53;;;;;;;2.26;100.00;102202.34;4965462;28;20039;-73
2022/01/16 07:10:49;;;;;;;198.70;70.30;;;;;;;2.24;100.00;102206.28;4976635;28;20053;-73
2022/01/16 07:13:14;;;;;;;194.60;66.03;;;;;;;2.32;100.00;102208.75;4981611;28;20034;-73
2022/01/16 07:15:40;;;;;;;212.70;70.88;;;;;;;2.29;100.00;102216.44;4970959;28;20554;-73
2022/01/16 07:18:05;;;;;;;182.88;68.68;;;;;;;2.36;100.00;102217.25;4976572;28;20132;-73
2022/01/16 07:20:30;;;;;;;209.02;68.50;;;;;;;2.38;100.00;102231.28;4963548;28;20026;-73
2022/01/16 07:22:56;;;;;;;194.57;69.75;;;;;;;2.32;100.00;102232.97;4962374;28;20503;-73
2022/01/16 07:25:21;;;;;;;204.32;68.20;;;;;;;2.31;100.00;102236.72;4965305;28;20037;-73
2022/01/16 07:27:47;;;;;;;200.93;71.20;;;;;;;2.41;100.00;102241.63;4965307;28;20488;-73
2022/01/16 07:30:12;;;;;;;183.18;66.15;;;;;;;2.45;100.00;102242.88;4977262;28;20362;-73
2022/01/16 07:32:37;;;;;;;196.27;68.75;;;;;;;2.40;100.00;102245.38;4967931;28;20122;-73
2022/01/16 07:35:04;;;;;;;186.35;67.90;;;;;;;2.49;100.00;102244.06;4965021;28;20050;-73
2022/01/16 07:37:29;;;;;;;193.73;68.60;;;;;;;2.53;100.00;102242.63;4975117;28;20045;-72
2022/01/16 07:39:55;;;;;;;190.88;68.55;;;;;;;2.53;100.00;102245.31;4969056;28;20782;-73
2022/01/16 07:42:21;;;;;;;191.80;68.38;;;;;;;2.56;100.00;102261.03;4975515;28;20770;-73
2022/01/16 07:44:46;;;;;;;184.10;67.30;;;;;;;2.57;100.00;102256.47;4963638;28;20046;-73
2022/01/16 07:47:12;;;;;;;186.23;65.80;;;;;;;2.56;100.00;102255.66;4967559;28;20190;-73
2022/01/16 07:49:37;;;;;;;182.73;68.68;;;;;;;2.55;100.00;102255.84;4974127;28;20113;-73
2022/01/16 07:52:03;;;;;;;189.93;68.47;;;;;;;2.58;100.00;102264.31;4960570;28;20562;-73
2022/01/16 07:54:28;;;;;;;185.27;68.20;;;;;;;2.67;100.00;102257.63;4969875;28;20058;-73
2022/01/16 07:56:54;;;;;;;190.65;69.78;;;;;;;2.60;100.00;102266.81;4966431;28;20039;-73
2022/01/16 07:59:19;;;;;;;185.63;68.50;;;;;;;2.68;100.00;102280.84;4962791;28;20047;-74
2022/01/16 08:01:45;;;;;;;191.50;69.00;;;;;;;2.64;100.00;102284.19;4968209;28;20081;-73
2022/01/16 08:04:10;;;;;;;193.05;70.82;;;;;;;2.78;100.00;102284.94;4980208;28;20206;-73
2022/01/16 08:06:35;;;;;;;180.50;67.53;;;;;;;2.77;100.00;102288.69;4965222;28;20423;-73
2022/01/16 08:09:01;;;;;;;172.60;64.72;;;;;;;2.83;100.00;102287.81;4964197;28;20469;-73
2022/01/16 08:11:26;;;;;;;164.63;62.75;;;;;;;2.92;100.00;102286.53;4967838;28;20146;-73
2022/01/16 08:13:52;;;;;;;167.25;65.10;;;;;;;2.89;100.00;102270.78;4960597;28;20503;-73
2022/01/16 08:16:17;;;;;;;162.55;63.10;;;;;;;2.97;100.00;102267.84;4964685;28;20390;-73
2022/01/16 08:18:42;;;;;;;156.55;62.00;;;;;;;2.94;100.00;102270.97;4963603;28;20798;-73
2022/01/16 08:21:08;;;;;;;148.18;59.60;;;;;;;3.07;100.00;102267.34;4965037;28;20046;-73
2022/01/16 08:23:34;;;;;;;145.90;59.13;;;;;;;3.09;100.00;102260.69;4964323;28;20050;-73
2022/01/16 08:26:00;;;;;;;138.60;58.15;;;;;;;3.13;100.00;102261.91;4969873;28;20045;-73
2022/01/16 08:28:25;;;;;;;138.13;58.13;;;;;;;3.24;100.00;102256.84;4963538;28;20078;-73
2022/01/16 08:30:51;;;;;;;146.88;58.42;;;;;;;3.30;100.00;102253.28;4960794;28;20169;-73
2022/01/16 08:33:16;;;;;;;140.30;57.22;;;;;;;3.29;100.00;102248.94;4964913;28;20476;-73
2022/01/16 08:35:42;;;;;;;133.23;55.33;;;;;;;3.49;100.00;102254.97;4961441;28;20637;-73
2022/01/16 08:38:08;;;;;;;135.65;56.08;;;;;;;3.55;100.00;102258.63;4969011;28;20050;-74
2022/01/16 08:40:33;;;;;;;119.90;53.30;;;;;;;3.64;100.00;102251.94;4970601;28;20076;-74
2022/01/16 08:43:02;;;;;;;122.97;51.88;;;;;;;3.76;100.00;102260.94;4969104;28;20548;-73
2022/01/16 08:45:28;;;;;;;116.22;48.75;;;;;;;3.71;100.00;102251.88;4963004;28;20034;-73
2022/01/16 08:47:53;;;;;;;108.82;48.03;;;;;;;3.79;100.00;102248.88;4969630;28;20046;-73
2022/01/16 08:50:19;;;;;;;111.03;49.13;;;;;;;3.86;100.00;102249.63;4964294;28;20415;-73
2022/01/16 08:52:45;;;;;;;110.03;48.50;;;;;;;3.86;100.00;102249.63;4967591;28;20046;-73
2022/01/16 08:55:17;;;;;;;105.95;49.58;;;;;;;3.90;100.00;102258.94;5049305;28;21039;-71
2022/01/16 08:57:43;;;;;;;105.05;49.45;;;;;;;3.97;100.00;102254.28;5052677;28;20793;-72
2022/01/16 09:00:09;;;;;;;96.32;46.05;;;;;;;4.02;100.00;102259.84;5051240;28;20044;-72
2022/01/16 09:02:35;;;;;;;99.85;46.08;;;;;;;4.07;100.00;102268.09;5045973;28;20033;-72
2022/01/16 09:05:00;;;;;;;100.07;45.60;;;;;;;4.01;100.00;102268.16;5039667;28;20048;-72
2022/01/16 09:07:26;;;;;;;99.45;46.28;;;;;;;4.13;100.00;102274.47;5039780;28;20044;-72
2022/01/16 09:09:51;;;;;;;97.85;44.42;;;;;;;4.05;100.00;102275.56;5058044;28;20093;-72
2022/01/16 09:12:16;;;;;;;98.70;45.15;;;;;;;4.15;100.00;102277.75;5042917;28;20095;-72
2022/01/16 09:14:42;;;;;;;99.82;42.50;;;;;;;4.18;100.00;102284.56;5040669;28;20036;-71
2022/01/16 09:17:07;;;;;;;94.15;41.40;;;;;;;4.29;100.00;102281.13;5041339;28;20107;-72
2022/01/16 09:19:33;;;;;;;93.50;41.75;;;;;;;4.22;100.00;102292.00;5040551;28;20056;-71
2022/01/16 09:21:58;;;;;;;88.95;40.67;;;;;;;4.29;100.00;102287.34;5043065;28;20051;-71
2022/01/16 09:24:24;;;;;;;83.10;38.92;;;;;;;4.40;100.00;102291.16;5049991;28;20040;-72
2022/01/16 09:26:50;;;;;;;87.43;41.22;;;;;;;4.28;100.00;102295.69;5047800;28;20036;-71
2022/01/16 09:29:15;;;;;;;78.63;38.53;;;;;;;4.42;100.00;102291.78;5039371;28;20041;-71
2022/01/16 09:31:41;;;;;;;82.30;38.63;;;;;;;4.44;100.00;102297.75;5038105;28;20037;-71
2022/01/16 09:34:06;;;;;;;82.72;38.38;;;;;;;4.54;100.00;102294.53;5046691;28;20553;-71
2022/01/16 09:36:31;;;;;;;82.05;37.72;;;;;;;4.40;100.00;102303.84;5035062;28;20029;-72
2022/01/16 09:38:57;;;;;;;81.55;37.33;;;;;;;4.59;100.00;102301.94;5036965;28;20398;-71
2022/01/16 09:41:22;;;;;;;77.95;37.25;;;;;;;4.68;100.00;102301.41;5039486;28;20467;-71
2022/01/16 09:43:48;;;;;;;73.45;35.70;;;;;;;4.80;100.00;102308.72;5039168;28;20938;-72
2022/01/16 09:46:13;;;;;;;76.63;35.90;;;;;;;4.70;100.00;102310.09;5049881;28;20953;-71
2022/01/16 09:48:39;;;;;;;81.18;36.42;;;;;;;4.71;100.00;102310.91;5037199;28;20531;-71
2022/01/16 09:51:04;;;;;;;73.68;35.35;;;;;;;4.78;100.00;102310.84;5034727;28;20045;-71
2022/01/16 09:53:30;;;;;;;81.10;36.13;;;;;;;4.83;100.00;102314.53;5035507;28;20045;-72
2022/01/16 09:55:55;;;;;;;76.88;35.55;;;;;;;4.86;100.00;102308.66;5038187;28;20056;-72
2022/01/16 09:58:21;;;;;;;77.38;35.75;;;;;;;4.78;100.00;102311.66;5034312;28;20546;-71
2022/01/16 10:00:48;;;;;;;73.72;34.85;;;;;;;4.76;100.00;102322.69;5034288;28;20162;-72
2022/01/16 10:03:35;;;;;;;80.68;38.35;;;;;;;4.78;100.00;102318.97;5037118;28;20573;-72
2022/01/16 10:06:16;;;;;;;78.63;37.75;;;;;;;4.76;100.00;102325.41;5024278;28;20076;-71
2022/01/16 10:08:43;;;;;;;74.90;35.22;;;;;;;4.86;100.00;102329.44;5021278;28;20042;-71
2022/01/16 10:11:40;;;;;;;84.75;36.67;;;;;;;4.83;100.00;102325.31;5020693;28;20382;-71
2022/01/16 10:14:22;;;;;;;80.32;36.58;;;;;;;4.94;100.00;102339.94;5020257;28;20045;-72
2022/01/16 10:16:49;;;;;;;79.30;35.70;;;;;;;4.92;100.00;102340.16;5024262;28;20115;-71
2022/01/16 10:19:26;;;;;;;82.15;37.47;;;;;;;4.92;100.00;102350.97;5021779;28;20045;-72
2022/01/16 10:21:53;;;;;;;92.28;37.10;;;;;;;5.02;100.00;102355.00;5028383;28;20041;-72
2022/01/16 10:24:24;;;;;;;85.57;38.38;;;;;;;4.93;100.00;102347.22;5024711;28;20040;-72
2022/01/16 10:27:10;;;;;;;95.53;38.97;;;;;;;4.91;100.00;102348.50;5024205;28;20076;-72
2022/01/16 10:29:56;;;;;;;84.65;38.03;;;;;;;5.00;100.00;102347.13;5026811;28;20543;-71
2022/01/16 10:32:31;;;;;;;80.65;37.35;;;;;;;4.94;100.00;102364.25;5020616;28;20476;-71
2022/01/16 10:35:17;;;;;;;87.22;39.72;;;;;;;4.98;100.00;102370.88;5025553;28;20040;-72
2022/01/16 10:37:48;;;;;;;91.00;41.60;;;;;;;4.98;100.00;102376.28;5023650;28;20052;-71
2022/01/16 10:40:14;;;;;;;93.43;39.10;;;;;;;4.98;100.00;102365.47;5024428;28;20562;-70
2022/01/16 10:42:40;;;;;;;89.32;40.42;;;;;;;4.97;100.00;102358.38;5033152;28;20051;-71
2022/01/16 10:45:12;;;;;;;93.22;40.50;;;;;;;4.99;100.00;102367.09;5020554;28;20502;-72
2022/01/16 10:47:41;;;;;;;99.88;41.22;;;;;;;5.08;100.00;102367.63;5027106;28;20063;-71
2022/01/16 10:50:12;;;;;;;100.07;41.67;;;;;;;5.17;100.00;102360.81;5021739;28;20420;-72
2022/01/16 10:52:45;;;;;;;95.97;39.58;;;;;;;5.11;100.00;102357.16;5023420;28;20458;-71
2022/01/16 10:55:11;;;;;;;101.93;42.88;;;;;;;5.07;100.00;102361.38;5019919;28;20071;-72
2022/01/16 10:57:37;;;;;;;93.25;40.80;;;;;;;5.12;100.00;102360.69;5025123;28;20041;-72
2022/01/16 11:00:10;;;;;;;101.35;40.17;;;;;;;5.30;100.00;102357.13;5024045;28;20040;-72
2022/01/16 11:02:36;;;;;;;105.32;43.28;;;;;;;5.22;100.00;102361.78;5023361;28;20515;-71
2022/01/16 11:05:06;;;;;;;113.93;43.97;;;;;;;5.20;100.00;102358.47;5024651;28;20462;-72
2022/01/16 11:07:32;;;;;;;106.03;43.08;;;;;;;5.22;100.00;102366.38;5026316;28;20040;-71
2022/01/16 11:09:57;;;;;;;110.00;44.63;;;;;;;5.24;100.00;102363.44;5028889;28;20056;-71
2022/01/16 11:12:23;;;;;;;113.88;44.63;;;;;;;5.26;100.00;102367.53;5025773;28;20041;-71
2022/01/16 11:14:48;;;;;;;110.40;45.47;;;;;;;5.19;100.00;102373.06;5024798;28;20045;-71
2022/01/16 11:17:14;;;;;;;118.15;45.50;;;;;;;5.16;100.00;102372.69;5022326;28;20044;-71
2022/01/16 11:19:39;;;;;;;109.30;44.58;;;;;;;5.15;100.00;102371.06;5027922;28;20048;-71
2022/01/16 11:22:10;;;;;;;110.38;45.45;;;;;;;5.13;100.00;102373.16;5023413;28;20045;-72
2022/01/16 11:24:47;;;;;;;114.93;46.33;;;;;;;5.17;100.00;102383.28;5020220;28;20037;-71
2022/01/16 11:27:15;;;;;;;119.10;45.05;;;;;;;5.14;100.00;102378.31;5025993;28;20405;-72
2022/01/16 11:29:42;;;;;;;117.82;48.15;;;;;;;5.16;100.00;102378.94;5034186;28;20957;-71
2022/01/16 11:32:09;;;;;;;115.95;48.38;;;;;;;5.12;100.00;102379.59;5023934;28;20036;-71
2022/01/16 11:34:35;;;;;;;115.43;46.80;;;;;;;5.17;100.00;102383.28;5019599;28;20600;-71
2022/01/16 11:37:01;;;;;;;119.00;49.15;;;;;;;5.24;100.00;102380.50;5020823;28;20114;-71
2022/01/16 11:39:35;;;;;;;118.55;47.38;;;;;;;5.19;100.00;102389.28;5020263;28;20045;-72
2022/01/16 11:42:02;;;;;;;118.03;46.72;;;;;;;5.42;100.00;102375.00;5019422;28;20041;-72
2022/01/16 11:44:30;;;;;;;116.72;46.97;;;;;;;5.23;100.00;102381.53;5034815;28;20041;-71
2022/01/16 11:47:01;;;;;;;110.47;46.03;;;;;;;5.36;100.00;102384.06;5019433;28;20053;-72